sensor_id;sensor_type;location;lat;lon;timestamp;pressure;altitude;pressure_sealevel;temperature;humidity
62592;BME280;48659;41.622;2.276;2023-02-15T00:01:05;101283.38;;;5.50;57.06
62592;BME280;48659;41.622;2.276;2023-02-15T00:03:33;101275.96;;;5.37;57.44
62592;BME280;48659;41.622;2.276;2023-02-15T00:06:01;101274.08;;;5.55;56.77
62592;BME280;48659;41.622;2.276;2023-02-15T00:08:29;101273.89;;;5.01;57.45
62592;BME280;48659;41.622;2.276;2023-02-15T00:11:04;101274.67;;;3.46;60.44
62592;BME280;48659;41.622;2.276;2023-02-15T00:13:32;101269.15;;;2.08;63.95
62592;BME280;48659;41.622;2.276;2023-02-15T00:16:02;101263.53;;;2.69;64.30
62592;BME280;48659;41.622;2.276;2023-02-15T00:18:29;101257.64;;;3.47;61.62
62592;BME280;48659;41.622;2.276;2023-02-15T00:20:57;101259.14;;;2.18;65.02
62592;BME280;48659;41.622;2.276;2023-02-15T00:23:26;101250.21;;;3.04;64.11
62592;BME280;48659;41.622;2.276;2023-02-15T00:26:03;101241.72;;;4.22;60.95
62592;BME280;48659;41.622;2.276;2023-02-15T00:28:31;101244.65;;;3.26;64.06
62592;BME280;48659;41.622;2.276;2023-02-15T00:31:03;101236.73;;;4.22;62.27
62592;BME280;48659;41.622;2.276;2023-02-15T00:33:31;101238.59;;;3.46;64.91
62592;BME280;48659;41.622;2.276;2023-02-15T00:35:59;101237.36;;;4.08;63.08
62592;BME280;48659;41.622;2.276;2023-02-15T00:38:27;101232.24;;;4.70;60.54
62592;BME280;48659;41.622;2.276;2023-02-15T00:40:55;101229.10;;;3.77;62.57
62592;BME280;48659;41.622;2.276;2023-02-15T00:43:25;101228.20;;;4.40;59.39
62592;BME280;48659;41.622;2.276;2023-02-15T00:45:52;101225.12;;;5.34;58.17
62592;BME280;48659;41.622;2.276;2023-02-15T00:48:21;101221.09;;;5.88;56.20
62592;BME280;48659;41.622;2.276;2023-02-15T00:50:51;101217.47;;;5.11;56.56
62592;BME280;48659;41.622;2.276;2023-02-15T00:53:19;101215.73;;;5.20;55.91
62592;BME280;48659;41.622;2.276;2023-02-15T00:55:47;101214.01;;;5.12;56.35
62592;BME280;48659;41.622;2.276;2023-02-15T00:58:17;101218.45;;;2.85;61.09
62592;BME280;48659;41.622;2.276;2023-02-15T01:00:47;101215.82;;;4.03;60.38
62592;BME280;48659;41.622;2.276;2023-02-15T01:03:16;101215.21;;;3.21;61.11
62592;BME280;48659;41.622;2.276;2023-02-15T01:05:44;101215.24;;;2.98;62.20
62592;BME280;48659;41.622;2.276;2023-02-15T01:08:11;101214.35;;;3.50;61.96
62592;BME280;48659;41.622;2.276;2023-02-15T01:10:39;101210.55;;;4.45;59.61
62592;BME280;48659;41.622;2.276;2023-02-15T01:13:06;101212.17;;;4.99;58.28
62592;BME280;48659;41.622;2.276;2023-02-15T01:15:35;101215.05;;;4.43;58.33
62592;BME280;48659;41.622;2.276;2023-02-15T01:18:02;101216.80;;;5.13;57.38
62592;BME280;48659;41.622;2.276;2023-02-15T01:20:33;101217.41;;;5.51;56.08
62592;BME280;48659;41.622;2.276;2023-02-15T01:23:01;101213.58;;;5.38;56.00
62592;BME280;48659;41.622;2.276;2023-02-15T01:25:28;101211.09;;;6.18;54.34
62592;BME280;48659;41.622;2.276;2023-02-15T01:27:55;101212.64;;;5.53;53.88
62592;BME280;48659;41.622;2.276;2023-02-15T01:30:23;101214.00;;;5.03;55.70
62592;BME280;48659;41.622;2.276;2023-02-15T01:32:51;101203.94;;;5.46;54.86
62592;BME280;48659;41.622;2.276;2023-02-15T01:35:18;101207.85;;;5.33;55.74
62592;BME280;48659;41.622;2.276;2023-02-15T01:37:45;101208.62;;;4.88;55.21
62592;BME280;48659;41.622;2.276;2023-02-15T01:40:15;101209.91;;;4.77;55.49
62592;BME280;48659;41.622;2.276;2023-02-15T01:42:43;101204.57;;;4.82;55.06
62592;BME280;48659;41.622;2.276;2023-02-15T01:45:19;101205.95;;;5.13;55.67
62592;BME280;48659;41.622;2.276;2023-02-15T01:47:50;101208.24;;;4.96;55.09
62592;BME280;48659;41.622;2.276;2023-02-15T01:50:22;101207.11;;;4.24;56.76
62592;BME280;48659;41.622;2.276;2023-02-15T01:52:54;101211.03;;;4.32;57.24
62592;BME280;48659;41.622;2.276;2023-02-15T01:55:26;101210.38;;;4.69;56.73
62592;BME280;48659;41.622;2.276;2023-02-15T01:57:55;101207.90;;;4.65;56.92
62592;BME280;48659;41.622;2.276;2023-02-15T02:00:23;101210.82;;;3.93;56.89
62592;BME280;48659;41.622;2.276;2023-02-15T02:02:53;101208.63;;;5.11;55.11
62592;BME280;48659;41.622;2.276;2023-02-15T02:05:23;101210.29;;;5.24;53.68
62592;BME280;48659;41.622;2.276;2023-02-15T02:07:52;101210.24;;;5.34;53.63
62592;BME280;48659;41.622;2.276;2023-02-15T02:10:23;101204.79;;;4.32;55.42
62592;BME280;48659;41.622;2.276;2023-02-15T02:12:52;101201.40;;;5.12;54.84
62592;BME280;48659;41.622;2.276;2023-02-15T02:15:25;101197.91;;;3.86;56.96
62592;BME280;48659;41.622;2.276;2023-02-15T02:18:03;101195.06;;;4.13;58.88
62592;BME280;48659;41.622;2.276;2023-02-15T02:20:57;101194.64;;;2.40;63.19
62592;BME280;48659;41.622;2.276;2023-02-15T02:23:38;101191.36;;;3.68;60.27
62592;BME280;48659;41.622;2.276;2023-02-15T02:30:06;101187.64;;;1.81;66.27
62592;BME280;48659;41.622;2.276;2023-02-15T02:33:28;101176.73;;;3.42;61.60
62592;BME280;48659;41.622;2.276;2023-02-15T02:36:08;101171.91;;;2.29;64.20
62592;BME280;48659;41.622;2.276;2023-02-15T02:38:46;101165.11;;;2.83;62.30
62592;BME280;48659;41.622;2.276;2023-02-15T02:41:20;101155.64;;;3.48;59.64
62592;BME280;48659;41.622;2.276;2023-02-15T02:43:54;101155.55;;;3.98;58.38
62592;BME280;48659;41.622;2.276;2023-02-15T02:46:28;101156.48;;;4.62;57.28
62592;BME280;48659;41.622;2.276;2023-02-15T02:48:57;101155.23;;;2.61;61.35
62592;BME280;48659;41.622;2.276;2023-02-15T02:51:24;101151.06;;;2.24;62.75
62592;BME280;48659;41.622;2.276;2023-02-15T02:53:54;101146.85;;;3.23;60.07
62592;BME280;48659;41.622;2.276;2023-02-15T02:56:27;101147.31;;;3.89;58.49
62592;BME280;48659;41.622;2.276;2023-02-15T02:58:59;101146.94;;;4.38;56.96
62592;BME280;48659;41.622;2.276;2023-02-15T03:01:31;101143.80;;;3.03;58.81
62592;BME280;48659;41.622;2.276;2023-02-15T03:04:03;101137.70;;;3.71;57.68
62592;BME280;48659;41.622;2.276;2023-02-15T03:06:36;101135.74;;;3.84;57.05
62592;BME280;48659;41.622;2.276;2023-02-15T03:09:09;101129.70;;;3.92;57.15
62592;BME280;48659;41.622;2.276;2023-02-15T03:11:38;101128.34;;;3.02;59.76
62592;BME280;48659;41.622;2.276;2023-02-15T03:14:06;101127.19;;;3.82;58.01
62592;BME280;48659;41.622;2.276;2023-02-15T03:16:34;101124.56;;;3.79;57.82
62592;BME280;48659;41.622;2.276;2023-02-15T03:19:06;101120.35;;;3.93;58.32
62592;BME280;48659;41.622;2.276;2023-02-15T03:21:38;101119.67;;;4.13;57.93
62592;BME280;48659;41.622;2.276;2023-02-15T03:24:10;101117.51;;;4.21;57.57
62592;BME280;48659;41.622;2.276;2023-02-15T03:26:45;101114.24;;;4.29;57.33
62592;BME280;48659;41.622;2.276;2023-02-15T03:29:14;101110.84;;;4.02;57.53
62592;BME280;48659;41.622;2.276;2023-02-15T03:31:46;101109.31;;;4.24;56.76
62592;BME280;48659;41.622;2.276;2023-02-15T03:34:17;101107.37;;;4.15;56.78
62592;BME280;48659;41.622;2.276;2023-02-15T03:36:50;101103.31;;;4.50;56.01
62592;BME280;48659;41.622;2.276;2023-02-15T03:39:20;101100.58;;;4.57;55.78
62592;BME280;48659;41.622;2.276;2023-02-15T03:41:56;101100.96;;;3.73;58.20
62592;BME280;48659;41.622;2.276;2023-02-15T03:44:28;101095.67;;;4.07;57.11
62592;BME280;48659;41.622;2.276;2023-02-15T03:47:01;101093.14;;;4.27;56.44
62592;BME280;48659;41.622;2.276;2023-02-15T03:49:34;101089.98;;;3.96;56.56
62592;BME280;48659;41.622;2.276;2023-02-15T03:52:05;101088.98;;;4.48;55.96
62592;BME280;48659;41.622;2.276;2023-02-15T03:54:35;101088.00;;;4.67;54.90
62592;BME280;48659;41.622;2.276;2023-02-15T03:57:04;101089.88;;;4.27;55.68
62592;BME280;48659;41.622;2.276;2023-02-15T03:59:31;101087.42;;;4.37;55.51
62592;BME280;48659;41.622;2.276;2023-02-15T04:02:07;101082.86;;;4.29;55.84
62592;BME280;48659;41.622;2.276;2023-02-15T04:04:40;101082.27;;;3.61;56.84
62592;BME280;48659;41.622;2.276;2023-02-15T04:07:20;101082.14;;;3.99;56.91
62592;BME280;48659;41.622;2.276;2023-02-15T04:09:48;101085.28;;;3.79;56.07
62592;BME280;48659;41.622;2.276;2023-02-15T04:12:16;101089.14;;;4.12;56.18
62592;BME280;48659;41.622;2.276;2023-02-15T04:14:44;101084.40;;;4.06;56.87
62592;BME280;48659;41.622;2.276;2023-02-15T04:17:12;101083.99;;;4.04;56.69
62592;BME280;48659;41.622;2.276;2023-02-15T04:19:39;101082.53;;;4.11;56.10
62592;BME280;48659;41.622;2.276;2023-02-15T04:22:07;101081.94;;;4.22;55.22
62592;BME280;48659;41.622;2.276;2023-02-15T04:24:35;101086.75;;;4.13;56.41
62592;BME280;48659;41.622;2.276;2023-02-15T04:27:03;101087.87;;;4.08;55.60
62592;BME280;48659;41.622;2.276;2023-02-15T04:29:31;101089.48;;;4.00;55.82
62592;BME280;48659;41.622;2.276;2023-02-15T04:32:01;101089.53;;;4.29;55.83
62592;BME280;48659;41.622;2.276;2023-02-15T04:34:28;101089.39;;;3.79;56.85
62592;BME280;48659;41.622;2.276;2023-02-15T04:36:56;101091.54;;;3.71;56.74
62592;BME280;48659;41.622;2.276;2023-02-15T04:39:23;101089.91;;;3.92;56.24
62592;BME280;48659;41.622;2.276;2023-02-15T04:41:51;101090.98;;;4.18;55.91
62592;BME280;48659;41.622;2.276;2023-02-15T04:44:18;101088.20;;;3.77;56.75
62592;BME280;48659;41.622;2.276;2023-02-15T04:46:45;101087.09;;;4.38;55.76
62592;BME280;48659;41.622;2.276;2023-02-15T04:49:13;101091.90;;;3.99;56.52
62592;BME280;48659;41.622;2.276;2023-02-15T04:51:39;101085.10;;;3.94;56.87
62592;BME280;48659;41.622;2.276;2023-02-15T04:54:07;101083.30;;;3.52;57.85
62592;BME280;48659;41.622;2.276;2023-02-15T04:56:34;101081.77;;;3.72;56.91
62592;BME280;48659;41.622;2.276;2023-02-15T04:59:03;101081.13;;;4.48;56.24
62592;BME280;48659;41.622;2.276;2023-02-15T05:01:31;101082.39;;;3.37;58.24
62592;BME280;48659;41.622;2.276;2023-02-15T05:03:58;101079.19;;;4.32;56.54
62592;BME280;48659;41.622;2.276;2023-02-15T05:06:25;101082.72;;;3.95;57.32
62592;BME280;48659;41.622;2.276;2023-02-15T05:08:53;101079.93;;;4.41;55.87
62592;BME280;48659;41.622;2.276;2023-02-15T05:11:20;101082.03;;;3.83;56.70
62592;BME280;48659;41.622;2.276;2023-02-15T05:13:47;101082.16;;;3.99;56.85
62592;BME280;48659;41.622;2.276;2023-02-15T05:16:20;101083.55;;;4.00;56.55
62592;BME280;48659;41.622;2.276;2023-02-15T05:18:48;101084.57;;;3.13;58.61
62592;BME280;48659;41.622;2.276;2023-02-15T05:21:16;101086.12;;;3.36;57.41
62592;BME280;48659;41.622;2.276;2023-02-15T05:23:44;101088.65;;;3.65;57.08
62592;BME280;48659;41.622;2.276;2023-02-15T05:26:14;101086.42;;;4.25;56.04
62592;BME280;48659;41.622;2.276;2023-02-15T05:28:42;101087.28;;;3.93;56.75
62592;BME280;48659;41.622;2.276;2023-02-15T05:31:12;101090.24;;;3.19;58.12
62592;BME280;48659;41.622;2.276;2023-02-15T05:33:40;101087.56;;;4.03;57.02
62592;BME280;48659;41.622;2.276;2023-02-15T05:36:08;101091.22;;;4.40;55.89
62592;BME280;48659;41.622;2.276;2023-02-15T05:38:37;101089.73;;;4.65;55.76
62592;BME280;48659;41.622;2.276;2023-02-15T05:41:05;101092.69;;;3.98;57.38
62592;BME280;48659;41.622;2.276;2023-02-15T05:43:33;101094.94;;;5.15;54.90
62592;BME280;48659;41.622;2.276;2023-02-15T05:46:01;101098.24;;;4.88;54.73
62592;BME280;48659;41.622;2.276;2023-02-15T05:48:29;101101.29;;;5.18;54.81
62592;BME280;48659;41.622;2.276;2023-02-15T05:50:58;101101.25;;;5.07;54.35
62592;BME280;48659;41.622;2.276;2023-02-15T05:53:26;101105.55;;;4.58;55.35
62592;BME280;48659;41.622;2.276;2023-02-15T05:55:54;101103.13;;;4.68;55.58
62592;BME280;48659;41.622;2.276;2023-02-15T05:58:21;101098.33;;;4.20;55.46
62592;BME280;48659;41.622;2.276;2023-02-15T06:00:48;101100.67;;;4.22;55.71
62592;BME280;48659;41.622;2.276;2023-02-15T06:03:16;101099.16;;;4.56;55.27
62592;BME280;48659;41.622;2.276;2023-02-15T06:05:44;101100.77;;;3.88;56.95
62592;BME280;48659;41.622;2.276;2023-02-15T06:08:12;101101.42;;;3.89;56.86
62592;BME280;48659;41.622;2.276;2023-02-15T06:10:40;101098.28;;;3.76;57.22
62592;BME280;48659;41.622;2.276;2023-02-15T06:13:07;101099.09;;;4.13;56.54
62592;BME280;48659;41.622;2.276;2023-02-15T06:15:34;101104.38;;;4.01;56.89
62592;BME280;48659;41.622;2.276;2023-02-15T06:18:02;101111.51;;;4.27;57.40
62592;BME280;48659;41.622;2.276;2023-02-15T06:20:30;101108.80;;;4.39;56.73
62592;BME280;48659;41.622;2.276;2023-02-15T06:22:57;101109.50;;;4.26;56.10
62592;BME280;48659;41.622;2.276;2023-02-15T06:25:24;101106.99;;;3.18;56.63
62592;BME280;48659;41.622;2.276;2023-02-15T06:27:52;101107.78;;;4.11;56.23
62592;BME280;48659;41.622;2.276;2023-02-15T06:30:20;101113.13;;;4.28;56.11
62592;BME280;48659;41.622;2.276;2023-02-15T06:32:47;101116.07;;;4.48;55.58
62592;BME280;48659;41.622;2.276;2023-02-15T06:35:15;101116.68;;;4.63;55.20
62592;BME280;48659;41.622;2.276;2023-02-15T06:37:45;101113.78;;;4.76;55.11
62592;BME280;48659;41.622;2.276;2023-02-15T06:40:21;101119.40;;;4.16;55.29
62592;BME280;48659;41.622;2.276;2023-02-15T06:42:49;101125.56;;;4.38;55.69
62592;BME280;48659;41.622;2.276;2023-02-15T06:45:17;101131.03;;;4.10;56.32
62592;BME280;48659;41.622;2.276;2023-02-15T06:47:44;101140.55;;;4.31;55.84
62592;BME280;48659;41.622;2.276;2023-02-15T06:50:12;101145.52;;;4.17;56.18
62592;BME280;48659;41.622;2.276;2023-02-15T06:52:39;101148.44;;;4.07;56.24
62592;BME280;48659;41.622;2.276;2023-02-15T06:55:07;101152.01;;;4.44;55.71
62592;BME280;48659;41.622;2.276;2023-02-15T06:57:35;101159.28;;;4.41;55.77
62592;BME280;48659;41.622;2.276;2023-02-15T07:00:03;101162.63;;;4.60;54.86
62592;BME280;48659;41.622;2.276;2023-02-15T07:02:30;101164.08;;;4.13;55.69
62592;BME280;48659;41.622;2.276;2023-02-15T07:04:58;101174.04;;;3.32;58.12
62592;BME280;48659;41.622;2.276;2023-02-15T07:07:25;101175.35;;;3.76;57.25
62592;BME280;48659;41.622;2.276;2023-02-15T07:09:52;101177.32;;;4.34;56.42
62592;BME280;48659;41.622;2.276;2023-02-15T07:12:20;101180.39;;;4.01;56.33
62592;BME280;48659;41.622;2.276;2023-02-15T07:14:47;101182.48;;;3.93;56.92
62592;BME280;48659;41.622;2.276;2023-02-15T07:17:14;101183.57;;;4.13;55.93
62592;BME280;48659;41.622;2.276;2023-02-15T07:19:42;101184.36;;;4.45;56.10
62592;BME280;48659;41.622;2.276;2023-02-15T07:22:10;101186.61;;;4.70;56.15
62592;BME280;48659;41.622;2.276;2023-02-15T07:24:37;101191.43;;;3.75;58.19
62592;BME280;48659;41.622;2.276;2023-02-15T07:27:06;101188.51;;;4.34;57.40
62592;BME280;48659;41.622;2.276;2023-02-15T07:29:33;101190.87;;;5.13;56.96
62592;BME280;48659;41.622;2.276;2023-02-15T07:32:00;101188.99;;;4.49;57.21
62592;BME280;48659;41.622;2.276;2023-02-15T07:34:28;101192.61;;;4.52;55.82
62592;BME280;48659;41.622;2.276;2023-02-15T07:36:55;101192.36;;;5.31;55.25
62592;BME280;48659;41.622;2.276;2023-02-15T07:39:23;101197.24;;;5.93;53.98
62592;BME280;48659;41.622;2.276;2023-02-15T07:41:51;101197.94;;;4.81;56.01
62592;BME280;48659;41.622;2.276;2023-02-15T07:44:20;101204.31;;;5.33;55.54
62592;BME280;48659;41.622;2.276;2023-02-15T07:46:47;101206.86;;;5.76;53.69
62592;BME280;48659;41.622;2.276;2023-02-15T07:49:14;101209.46;;;5.55;54.08
62592;BME280;48659;41.622;2.276;2023-02-15T07:51:42;101205.61;;;5.16;55.36
62592;BME280;48659;41.622;2.276;2023-02-15T07:54:09;101209.13;;;5.74;53.97
62592;BME280;48659;41.622;2.276;2023-02-15T07:56:36;101207.95;;;4.62;54.87
62592;BME280;48659;41.622;2.276;2023-02-15T07:59:04;101215.61;;;4.37;58.10
62592;BME280;48659;41.622;2.276;2023-02-15T08:01:34;101210.69;;;5.25;55.79
62592;BME280;48659;41.622;2.276;2023-02-15T08:04:03;101214.50;;;5.82;55.14
62592;BME280;48659;41.622;2.276;2023-02-15T08:06:35;101214.43;;;6.46;52.61
62592;BME280;48659;41.622;2.276;2023-02-15T08:09:04;101214.12;;;6.19;52.53
62592;BME280;48659;41.622;2.276;2023-02-15T08:11:33;101219.61;;;5.48;53.14
62592;BME280;48659;41.622;2.276;2023-02-15T08:14:03;101217.81;;;6.24;53.74
62592;BME280;48659;41.622;2.276;2023-02-15T08:16:34;101217.37;;;6.58;53.33
62592;BME280;48659;41.622;2.276;2023-02-15T08:19:05;101211.42;;;6.63;51.71
62592;BME280;48659;41.622;2.276;2023-02-15T08:21:34;101213.98;;;6.17;52.95
62592;BME280;48659;41.622;2.276;2023-02-15T08:24:03;101214.88;;;6.53;52.52
62592;BME280;48659;41.622;2.276;2023-02-15T08:26:32;101215.97;;;6.23;53.55
62592;BME280;48659;41.622;2.276;2023-02-15T08:28:59;101210.75;;;6.71;52.57
62592;BME280;48659;41.622;2.276;2023-02-15T08:31:28;101210.96;;;6.54;52.59
62592;BME280;48659;41.622;2.276;2023-02-15T08:33:56;101214.93;;;6.88;52.27
62592;BME280;48659;41.622;2.276;2023-02-15T08:36:25;101214.36;;;6.89;51.27
62592;BME280;48659;41.622;2.276;2023-02-15T08:38:53;101209.30;;;7.34;50.28
62592;BME280;48659;41.622;2.276;2023-02-15T08:41:22;101208.63;;;7.11;50.18
62592;BME280;48659;41.622;2.276;2023-02-15T08:43:52;101207.42;;;7.54;49.43
62592;BME280;48659;41.622;2.276;2023-02-15T08:46:21;101205.58;;;7.53;49.52
62592;BME280;48659;41.622;2.276;2023-02-15T08:48:49;101204.25;;;7.70;49.24
62592;BME280;48659;41.622;2.276;2023-02-15T08:51:20;101202.84;;;7.86;48.29
62592;BME280;48659;41.622;2.276;2023-02-15T08:53:49;101206.24;;;8.04;47.70
62592;BME280;48659;41.622;2.276;2023-02-15T08:56:19;101209.84;;;8.25;47.07
62592;BME280;48659;41.622;2.276;2023-02-15T08:58:47;101211.04;;;8.05;47.37
62592;BME280;48659;41.622;2.276;2023-02-15T09:01:15;101211.37;;;8.42;47.29
62592;BME280;48659;41.622;2.276;2023-02-15T09:03:45;101214.95;;;7.93;47.74
62592;BME280;48659;41.622;2.276;2023-02-15T09:06:21;101214.90;;;8.50;46.44
62592;BME280;48659;41.622;2.276;2023-02-15T09:08:49;101215.80;;;8.53;46.70
62592;BME280;48659;41.622;2.276;2023-02-15T09:11:22;101214.90;;;8.59;46.09
62592;BME280;48659;41.622;2.276;2023-02-15T09:13:53;101216.77;;;8.86;46.44
62592;BME280;48659;41.622;2.276;2023-02-15T09:16:21;101216.11;;;9.18;45.85
62592;BME280;48659;41.622;2.276;2023-02-15T09:18:49;101214.17;;;9.63;44.65
62592;BME280;48659;41.622;2.276;2023-02-15T09:21:23;101217.76;;;9.23;45.52
62592;BME280;48659;41.622;2.276;2023-02-15T09:23:55;101220.66;;;9.51;45.22
62592;BME280;48659;41.622;2.276;2023-02-15T09:26:24;101224.35;;;9.90;44.18
62592;BME280;48659;41.622;2.276;2023-02-15T09:28:53;101224.66;;;10.04;43.96
62592;BME280;48659;41.622;2.276;2023-02-15T09:31:23;101223.60;;;10.06;43.86
62592;BME280;48659;41.622;2.276;2023-02-15T09:33:50;101228.03;;;9.81;44.89
62592;BME280;48659;41.622;2.276;2023-02-15T09:36:22;101225.24;;;9.67;44.04
62592;BME280;48659;41.622;2.276;2023-02-15T09:38:55;101222.42;;;10.41;43.43
62592;BME280;48659;41.622;2.276;2023-02-15T09:41:39;101224.23;;;10.39;43.26
62592;BME280;48659;41.622;2.276;2023-02-15T09:44:17;101221.50;;;10.66;42.85
62592;BME280;48659;41.622;2.276;2023-02-15T09:47:06;101219.49;;;10.67;43.10
62592;BME280;48659;41.622;2.276;2023-02-15T09:49:46;101221.21;;;10.94;43.43
62592;BME280;48659;41.622;2.276;2023-02-15T09:52:34;101217.47;;;11.30;42.80
62592;BME280;48659;41.622;2.276;2023-02-15T09:55:17;101216.52;;;11.01;42.92
62592;BME280;48659;41.622;2.276;2023-02-15T09:57:56;101213.21;;;11.54;42.49
62592;BME280;48659;41.622;2.276;2023-02-15T10:00:31;101214.91;;;11.64;43.24
62592;BME280;48659;41.622;2.276;2023-02-15T10:03:15;101215.32;;;11.58;42.40
62592;BME280;48659;41.622;2.276;2023-02-15T10:05:58;101213.39;;;12.20;41.97
62592;BME280;48659;41.622;2.276;2023-02-15T10:08:45;101211.44;;;11.87;42.53
62592;BME280;48659;41.622;2.276;2023-02-15T10:11:19;101211.65;;;12.09;42.03
62592;BME280;48659;41.622;2.276;2023-02-15T10:13:55;101213.11;;;11.99;41.84
62592;BME280;48659;41.622;2.276;2023-02-15T10:16:33;101212.79;;;12.42;41.38
62592;BME280;48659;41.622;2.276;2023-02-15T10:19:11;101213.09;;;12.48;41.84
62592;BME280;48659;41.622;2.276;2023-02-15T10:21:54;101211.21;;;12.24;41.98
62592;BME280;48659;41.622;2.276;2023-02-15T10:24:36;101212.51;;;12.57;41.92
62592;BME280;48659;41.622;2.276;2023-02-15T10:27:12;101210.95;;;12.45;44.07
62592;BME280;48659;41.622;2.276;2023-02-15T10:29:45;101207.31;;;12.45;44.39
62592;BME280;48659;41.622;2.276;2023-02-15T10:32:22;101204.16;;;12.17;43.08
62592;BME280;48659;41.622;2.276;2023-02-15T10:34:53;101203.24;;;12.54;42.51
62592;BME280;48659;41.622;2.276;2023-02-15T10:37:37;101203.75;;;11.92;44.24
62592;BME280;48659;41.622;2.276;2023-02-15T10:40:18;101203.76;;;12.67;43.12
62592;BME280;48659;41.622;2.276;2023-02-15T10:43:04;101201.74;;;12.97;43.30
62592;BME280;48659;41.622;2.276;2023-02-15T10:45:43;101207.48;;;12.74;41.90
62592;BME280;48659;41.622;2.276;2023-02-15T10:48:33;101205.11;;;12.93;42.17
62592;BME280;48659;41.622;2.276;2023-02-15T10:51:10;101200.14;;;12.82;41.80
62592;BME280;48659;41.622;2.276;2023-02-15T10:53:53;101194.24;;;12.42;42.22
62592;BME280;48659;41.622;2.276;2023-02-15T10:56:33;101193.30;;;13.06;41.20
62592;BME280;48659;41.622;2.276;2023-02-15T10:59:22;101190.63;;;12.97;42.64
62592;BME280;48659;41.622;2.276;2023-02-15T11:01:59;101190.35;;;12.84;42.39
62592;BME280;48659;41.622;2.276;2023-02-15T11:04:39;101186.60;;;12.25;43.48
62592;BME280;48659;41.622;2.276;2023-02-15T11:07:26;101184.54;;;12.50;44.23
62592;BME280;48659;41.622;2.276;2023-02-15T11:10:01;101179.70;;;12.19;44.20
62592;BME280;48659;41.622;2.276;2023-02-15T11:12:33;101185.14;;;11.02;45.55
62592;BME280;48659;41.622;2.276;2023-02-15T11:15:04;101181.03;;;12.56;44.05
62592;BME280;48659;41.622;2.276;2023-02-15T11:17:42;101180.04;;;12.71;43.75
62592;BME280;48659;41.622;2.276;2023-02-15T11:20:18;101176.89;;;11.27;45.15
62592;BME280;48659;41.622;2.276;2023-02-15T11:22:51;101170.42;;;13.21;44.24
62592;BME280;48659;41.622;2.276;2023-02-15T11:25:23;101169.15;;;12.55;42.82
62592;BME280;48659;41.622;2.276;2023-02-15T11:27:53;101163.92;;;13.02;43.79
62592;BME280;48659;41.622;2.276;2023-02-15T11:30:24;101164.49;;;11.62;44.50
62592;BME280;48659;41.622;2.276;2023-02-15T11:32:54;101168.16;;;11.16;46.77
62592;BME280;48659;41.622;2.276;2023-02-15T11:35:27;101164.85;;;10.80;46.04
62592;BME280;48659;41.622;2.276;2023-02-15T11:38:02;101155.91;;;13.21;44.74
62592;BME280;48659;41.622;2.276;2023-02-15T11:40:35;101156.65;;;12.67;43.65
62592;BME280;48659;41.622;2.276;2023-02-15T11:43:06;101154.85;;;13.53;41.63
62592;BME280;48659;41.622;2.276;2023-02-15T11:45:40;101150.35;;;12.81;41.85
62592;BME280;48659;41.622;2.276;2023-02-15T11:48:11;101150.31;;;12.60;42.91
62592;BME280;48659;41.622;2.276;2023-02-15T11:50:39;101147.09;;;13.52;41.20
62592;BME280;48659;41.622;2.276;2023-02-15T11:53:11;101144.86;;;13.79;41.42
62592;BME280;48659;41.622;2.276;2023-02-15T11:55:39;101137.64;;;14.26;39.74
62592;BME280;48659;41.622;2.276;2023-02-15T11:58:19;101135.54;;;14.51;39.85
62592;BME280;48659;41.622;2.276;2023-02-15T12:00:52;101131.97;;;12.46;42.40
62592;BME280;48659;41.622;2.276;2023-02-15T12:03:27;101126.39;;;13.61;42.36
62592;BME280;48659;41.622;2.276;2023-02-15T12:06:00;101120.33;;;12.74;42.76
62592;BME280;48659;41.622;2.276;2023-02-15T12:08:36;101114.85;;;14.17;40.99
62592;BME280;48659;41.622;2.276;2023-02-15T12:11:07;101114.40;;;13.59;40.41
62592;BME280;48659;41.622;2.276;2023-02-15T12:13:36;101107.34;;;14.03;40.66
62592;BME280;48659;41.622;2.276;2023-02-15T12:16:06;101096.27;;;14.35;39.70
62592;BME280;48659;41.622;2.276;2023-02-15T12:18:39;101097.09;;;14.29;39.37
62592;BME280;48659;41.622;2.276;2023-02-15T12:21:10;101092.92;;;13.54;39.72
62592;BME280;48659;41.622;2.276;2023-02-15T12:23:43;101086.23;;;14.91;38.41
62592;BME280;48659;41.622;2.276;2023-02-15T12:26:24;101087.73;;;14.09;38.18
62592;BME280;48659;41.622;2.276;2023-02-15T12:28:53;101083.12;;;14.65;37.59
62592;BME280;48659;41.622;2.276;2023-02-15T12:31:25;101084.79;;;14.03;39.21
62592;BME280;48659;41.622;2.276;2023-02-15T12:33:55;101080.07;;;14.68;37.83
62592;BME280;48659;41.622;2.276;2023-02-15T12:36:25;101074.55;;;14.80;38.08
62592;BME280;48659;41.622;2.276;2023-02-15T12:39:15;101069.01;;;14.33;38.07
62592;BME280;48659;41.622;2.276;2023-02-15T12:41:46;101058.02;;;14.83;37.23
62592;BME280;48659;41.622;2.276;2023-02-15T12:44:17;101051.91;;;14.03;38.07
62592;BME280;48659;41.622;2.276;2023-02-15T12:46:56;101051.91;;;14.34;38.19
62592;BME280;48659;41.622;2.276;2023-02-15T12:49:25;101048.42;;;15.52;36.83
62592;BME280;48659;41.622;2.276;2023-02-15T12:51:55;101043.45;;;15.40;38.29
62592;BME280;48659;41.622;2.276;2023-02-15T12:54:40;101042.40;;;15.01;37.55
62592;BME280;48659;41.622;2.276;2023-02-15T12:57:29;101040.77;;;15.32;36.92
62592;BME280;48659;41.622;2.276;2023-02-15T12:59:58;101035.38;;;15.71;36.36
62592;BME280;48659;41.622;2.276;2023-02-15T13:02:30;101034.80;;;13.78;39.36
62592;BME280;48659;41.622;2.276;2023-02-15T13:05:22;101035.17;;;14.64;38.70
62592;BME280;48659;41.622;2.276;2023-02-15T13:07:56;101029.62;;;15.30;36.17
62592;BME280;48659;41.622;2.276;2023-02-15T13:10:26;101026.87;;;14.66;36.62
62592;BME280;48659;41.622;2.276;2023-02-15T13:12:55;101023.58;;;15.02;36.04
62592;BME280;48659;41.622;2.276;2023-02-15T13:15:28;101022.00;;;14.92;36.08
62592;BME280;48659;41.622;2.276;2023-02-15T13:17:58;101016.72;;;14.31;37.38
62592;BME280;48659;41.622;2.276;2023-02-15T13:20:28;101011.03;;;14.91;36.21
62592;BME280;48659;41.622;2.276;2023-02-15T13:22:59;101008.78;;;14.60;36.47